Boyne City, Michigan
Current Conditions -  °F | °C
As of 5:35 PM on Thursday 18 Dec 2014 (Local Time) from KCVX Reporting Station
Clear Clear  
Wind Chill: 17°   Ceiling: Unl
Heat Index: 23°   Visibility: 10mi
Dew Point: 12°   Wind: 5mph
Humidity: 65%   Direction: 40°NE
Pressure: 30.25"   Gusts: NA
Location:  45.22°N, 85.01°W
Report Text: KCVX 182235Z AUTO 04004KT 10SM CLR M05/M11 A3025 RMK AO2 T10521109
Loading
Personal Weather Stations






























Interactive Weather Map New forecast layout! Learn more

10-Day Weather Forecast

Advertisements
Track Severe Weather on mobile